Aviation Digital Data Service (ADDS)

Output produced by METARs form (1431 UTC 19 April 2019)
found at http://www.aviationweather.gov/metar/data/
 
KCAK 191423Z 35009KT 2SM BR OVC004 09/07 A2959 RMK AO2 DZE00RAB00E15 VIS 1V3 P0000 T00890072
KCAK 191325Z 1913/2012 34012KT 2SM -SHRA OVC008 
     TEMPO 1913/1915 3/4SM -RA BR BKN002 
     FM191600 32008KT 5SM -RA BR OVC008 
     FM200000 02014G20KT 4SM -SHRA BR OVC008 
     FM200900 05007KT 6SM BR VCSH OVC008